sensor_id;sensor_type;location;lat;lon;timestamp;pressure;altitude;pressure_sealevel;temperature;humidity
57606;BME280;43430;48.204;11.556;2023-06-14T00:00:38;95469.66;;;13.61;98.74
57606;BME280;43430;48.204;11.556;2023-06-14T00:03:08;95467.78;;;13.62;98.82
57606;BME280;43430;48.204;11.556;2023-06-14T00:05:38;95473.38;;;13.65;99.41
57606;BME280;43430;48.204;11.556;2023-06-14T00:08:09;95476.09;;;13.70;99.73
57606;BME280;43430;48.204;11.556;2023-06-14T00:10:36;95470.22;;;13.63;100.00
57606;BME280;43430;48.204;11.556;2023-06-14T00:13:02;95477.66;;;13.66;99.31
57606;BME280;43430;48.204;11.556;2023-06-14T00:15:30;95470.22;;;13.63;97.29
57606;BME280;43430;48.204;11.556;2023-06-14T00:17:56;95467.75;;;13.57;98.06
57606;BME280;43430;48.204;11.556;2023-06-14T00:20:21;95466.41;;;13.54;98.80
57606;BME280;43430;48.204;11.556;2023-06-14T00:22:47;95462.38;;;13.46;99.23
57606;BME280;43430;48.204;11.556;2023-06-14T00:25:13;95464.19;;;13.41;99.92
57606;BME280;43430;48.204;11.556;2023-06-14T00:27:38;95463.69;;;13.44;100.00
57606;BME280;43430;48.204;11.556;2023-06-14T00:30:04;95460.22;;;13.43;100.00
57606;BME280;43430;48.204;11.556;2023-06-14T00:32:30;95459.94;;;13.40;100.00
57606;BME280;43430;48.204;11.556;2023-06-14T00:34:55;95456.13;;;13.25;100.00
57606;BME280;43430;48.204;11.556;2023-06-14T00:37:21;95466.50;;;13.10;100.00
57606;BME280;43430;48.204;11.556;2023-06-14T00:39:47;95458.72;;;12.98;100.00
57606;BME280;43430;48.204;11.556;2023-06-14T00:42:23;95464.22;;;12.92;100.00
57606;BME280;43430;48.204;11.556;2023-06-14T00:44:48;95466.50;;;12.83;100.00
57606;BME280;43430;48.204;11.556;2023-06-14T00:47:14;95468.91;;;12.85;100.00
57606;BME280;43430;48.204;11.556;2023-06-14T00:49:39;95472.03;;;12.81;100.00
57606;BME280;43430;48.204;11.556;2023-06-14T00:52:04;95468.41;;;12.88;100.00
57606;BME280;43430;48.204;11.556;2023-06-14T00:54:31;95466.84;;;12.92;100.00
57606;BME280;43430;48.204;11.556;2023-06-14T00:56:56;95470.00;;;12.89;100.00
57606;BME280;43430;48.204;11.556;2023-06-14T00:59:22;95468.91;;;12.85;100.00
57606;BME280;43430;48.204;11.556;2023-06-14T01:01:47;95472.78;;;12.77;100.00
57606;BME280;43430;48.204;11.556;2023-06-14T01:04:13;95469.28;;;12.71;100.00
57606;BME280;43430;48.204;11.556;2023-06-14T01:06:59;95475.06;;;12.68;100.00
57606;BME280;43430;48.204;11.556;2023-06-14T01:09:51;95477.72;;;12.68;100.00
57606;BME280;43430;48.204;11.556;2023-06-14T01:12:33;95470.06;;;12.72;100.00
57606;BME280;43430;48.204;11.556;2023-06-14T01:15:01;95466.69;;;12.76;100.00
57606;BME280;43430;48.204;11.556;2023-06-14T01:17:27;95460.09;;;12.79;100.00
57606;BME280;43430;48.204;11.556;2023-06-14T01:19:58;95462.63;;;12.69;100.00
57606;BME280;43430;48.204;11.556;2023-06-14T01:22:27;95463.47;;;12.52;100.00
57606;BME280;43430;48.204;11.556;2023-06-14T01:24:53;95460.09;;;12.35;100.00
57606;BME280;43430;48.204;11.556;2023-06-14T01:27:23;95459.97;;;12.25;100.00
57606;BME280;43430;48.204;11.556;2023-06-14T01:29:51;95462.06;;;12.23;100.00
57606;BME280;43430;48.204;11.556;2023-06-14T01:32:18;95455.81;;;12.29;100.00
57606;BME280;43430;48.204;11.556;2023-06-14T01:34:43;95463.66;;;12.24;100.00
57606;BME280;43430;48.204;11.556;2023-06-14T01:37:10;95458.97;;;12.09;100.00
57606;BME280;43430;48.204;11.556;2023-06-14T01:39:36;95460.19;;;12.01;100.00
57606;BME280;43430;48.204;11.556;2023-06-14T01:42:02;95458.03;;;11.98;100.00
57606;BME280;43430;48.204;11.556;2023-06-14T01:44:29;95455.09;;;11.95;100.00
57606;BME280;43430;48.204;11.556;2023-06-14T01:46:55;95457.41;;;11.91;100.00
57606;BME280;43430;48.204;11.556;2023-06-14T01:49:21;95461.22;;;11.83;100.00
57606;BME280;43430;48.204;11.556;2023-06-14T01:51:47;95464.13;;;11.65;100.00
57606;BME280;43430;48.204;11.556;2023-06-14T01:54:12;95451.06;;;11.58;100.00
57606;BME280;43430;48.204;11.556;2023-06-14T01:56:38;95460.69;;;11.48;100.00
57606;BME280;43430;48.204;11.556;2023-06-14T01:59:03;95457.00;;;11.49;100.00
57606;BME280;43430;48.204;11.556;2023-06-14T02:01:29;95448.22;;;11.60;100.00
57606;BME280;43430;48.204;11.556;2023-06-14T02:03:54;95455.72;;;11.68;100.00
57606;BME280;43430;48.204;11.556;2023-06-14T02:06:19;95459.31;;;11.62;100.00
57606;BME280;43430;48.204;11.556;2023-06-14T02:08:45;95458.69;;;11.55;100.00
57606;BME280;43430;48.204;11.556;2023-06-14T02:11:10;95453.41;;;11.55;100.00
57606;BME280;43430;48.204;11.556;2023-06-14T02:13:36;95456.59;;;11.57;100.00
57606;BME280;43430;48.204;11.556;2023-06-14T02:16:01;95454.91;;;11.51;100.00
57606;BME280;43430;48.204;11.556;2023-06-14T02:18:26;95452.69;;;11.43;100.00
57606;BME280;43430;48.204;11.556;2023-06-14T02:20:52;95453.88;;;11.52;100.00
57606;BME280;43430;48.204;11.556;2023-06-14T02:23:18;95455.66;;;11.46;100.00
57606;BME280;43430;48.204;11.556;2023-06-14T02:25:43;95447.63;;;11.41;100.00
57606;BME280;43430;48.204;11.556;2023-06-14T02:28:10;95450.19;;;11.36;100.00
57606;BME280;43430;48.204;11.556;2023-06-14T02:30:35;95457.16;;;11.25;100.00
57606;BME280;43430;48.204;11.556;2023-06-14T02:33:01;95464.50;;;11.23;100.00
57606;BME280;43430;48.204;11.556;2023-06-14T02:35:27;95465.44;;;11.17;100.00
57606;BME280;43430;48.204;11.556;2023-06-14T02:37:53;95463.22;;;11.26;100.00
57606;BME280;43430;48.204;11.556;2023-06-14T02:40:19;95460.81;;;11.41;100.00
57606;BME280;43430;48.204;11.556;2023-06-14T02:42:45;95463.41;;;11.53;100.00
57606;BME280;43430;48.204;11.556;2023-06-14T02:45:11;95459.78;;;11.59;100.00
57606;BME280;43430;48.204;11.556;2023-06-14T02:47:36;95462.22;;;11.60;100.00
57606;BME280;43430;48.204;11.556;2023-06-14T02:50:02;95457.09;;;11.54;100.00
57606;BME280;43430;48.204;11.556;2023-06-14T02:52:28;95462.44;;;11.59;100.00
57606;BME280;43430;48.204;11.556;2023-06-14T02:54:54;95460.78;;;11.53;100.00
57606;BME280;43430;48.204;11.556;2023-06-14T02:57:20;95467.53;;;11.49;100.00
57606;BME280;43430;48.204;11.556;2023-06-14T02:59:46;95462.19;;;11.44;100.00
57606;BME280;43430;48.204;11.556;2023-06-14T03:02:11;95464.03;;;11.43;100.00
57606;BME280;43430;48.204;11.556;2023-06-14T03:04:37;95464.84;;;11.44;100.00
57606;BME280;43430;48.204;11.556;2023-06-14T03:07:03;95464.75;;;11.38;100.00
57606;BME280;43430;48.204;11.556;2023-06-14T03:09:37;95465.47;;;11.34;100.00
57606;BME280;43430;48.204;11.556;2023-06-14T03:12:04;95464.88;;;11.32;100.00
57606;BME280;43430;48.204;11.556;2023-06-14T03:14:31;95468.84;;;11.29;100.00
57606;BME280;43430;48.204;11.556;2023-06-14T03:16:56;95469.63;;;11.30;100.00
57606;BME280;43430;48.204;11.556;2023-06-14T03:19:23;95478.28;;;11.25;100.00
57606;BME280;43430;48.204;11.556;2023-06-14T03:21:48;95475.69;;;11.30;100.00
57606;BME280;43430;48.204;11.556;2023-06-14T03:24:14;95479.56;;;11.39;100.00
57606;BME280;43430;48.204;11.556;2023-06-14T03:26:41;95475.78;;;11.35;100.00
57606;BME280;43430;48.204;11.556;2023-06-14T03:29:07;95484.75;;;11.34;100.00
57606;BME280;43430;48.204;11.556;2023-06-14T03:31:34;95480.81;;;11.37;100.00
57606;BME280;43430;48.204;11.556;2023-06-14T03:34:00;95489.53;;;11.37;100.00
57606;BME280;43430;48.204;11.556;2023-06-14T03:36:26;95496.03;;;11.30;100.00
57606;BME280;43430;48.204;11.556;2023-06-14T03:38:53;95496.97;;;11.24;100.00
57606;BME280;43430;48.204;11.556;2023-06-14T03:41:18;95505.59;;;11.19;100.00
57606;BME280;43430;48.204;11.556;2023-06-14T03:43:44;95492.47;;;11.24;100.00
57606;BME280;43430;48.204;11.556;2023-06-14T03:46:09;95495.69;;;11.26;100.00
57606;BME280;43430;48.204;11.556;2023-06-14T03:48:35;95498.41;;;11.31;100.00
57606;BME280;43430;48.204;11.556;2023-06-14T03:51:00;95498.97;;;11.33;100.00
57606;BME280;43430;48.204;11.556;2023-06-14T03:53:26;95501.16;;;11.36;100.00
57606;BME280;43430;48.204;11.556;2023-06-14T03:55:53;95496.66;;;11.37;100.00
57606;BME280;43430;48.204;11.556;2023-06-14T03:58:19;95498.84;;;11.40;100.00
57606;BME280;43430;48.204;11.556;2023-06-14T04:00:44;95508.50;;;11.34;100.00
57606;BME280;43430;48.204;11.556;2023-06-14T04:03:10;95508.34;;;11.41;100.00
57606;BME280;43430;48.204;11.556;2023-06-14T04:05:38;95522.13;;;11.43;100.00
57606;BME280;43430;48.204;11.556;2023-06-14T04:08:07;95516.03;;;11.43;100.00
57606;BME280;43430;48.204;11.556;2023-06-14T04:10:35;95516.44;;;11.51;100.00
57606;BME280;43430;48.204;11.556;2023-06-14T04:13:01;95522.22;;;11.65;100.00
57606;BME280;43430;48.204;11.556;2023-06-14T04:15:26;95526.06;;;11.74;100.00
57606;BME280;43430;48.204;11.556;2023-06-14T04:17:53;95527.75;;;11.97;100.00
57606;BME280;43430;48.204;11.556;2023-06-14T04:20:22;95522.13;;;12.27;100.00
57606;BME280;43430;48.204;11.556;2023-06-14T04:22:50;95528.13;;;12.62;100.00
57606;BME280;43430;48.204;11.556;2023-06-14T04:25:15;95523.47;;;12.91;100.00
57606;BME280;43430;48.204;11.556;2023-06-14T04:27:42;95522.69;;;13.17;100.00
57606;BME280;43430;48.204;11.556;2023-06-14T04:30:07;95530.16;;;13.42;100.00
57606;BME280;43430;48.204;11.556;2023-06-14T04:32:33;95530.09;;;13.64;100.00
57606;BME280;43430;48.204;11.556;2023-06-14T04:34:59;95521.50;;;13.84;100.00
57606;BME280;43430;48.204;11.556;2023-06-14T04:37:27;95523.72;;;13.97;100.00
57606;BME280;43430;48.204;11.556;2023-06-14T04:39:55;95524.59;;;14.08;100.00
57606;BME280;43430;48.204;11.556;2023-06-14T04:42:21;95527.06;;;14.20;100.00
57606;BME280;43430;48.204;11.556;2023-06-14T04:44:50;95522.16;;;14.39;100.00
57606;BME280;43430;48.204;11.556;2023-06-14T04:47:17;95529.97;;;14.56;100.00
57606;BME280;43430;48.204;11.556;2023-06-14T04:49:42;95517.59;;;14.82;100.00
57606;BME280;43430;48.204;11.556;2023-06-14T04:52:07;95529.34;;;14.91;100.00
57606;BME280;43430;48.204;11.556;2023-06-14T04:54:38;95532.34;;;15.20;100.00
57606;BME280;43430;48.204;11.556;2023-06-14T04:57:06;95535.84;;;15.41;100.00
57606;BME280;43430;48.204;11.556;2023-06-14T04:59:32;95527.38;;;15.49;100.00
57606;BME280;43430;48.204;11.556;2023-06-14T05:01:58;95525.81;;;15.69;100.00
57606;BME280;43430;48.204;11.556;2023-06-14T05:04:25;95525.31;;;15.92;100.00
57606;BME280;43430;48.204;11.556;2023-06-14T05:06:52;95529.03;;;16.11;100.00
57606;BME280;43430;48.204;11.556;2023-06-14T05:09:19;95522.88;;;16.26;100.00
57606;BME280;43430;48.204;11.556;2023-06-14T05:11:45;95535.09;;;16.37;100.00
57606;BME280;43430;48.204;11.556;2023-06-14T05:14:11;95540.34;;;16.83;97.15
57606;BME280;43430;48.204;11.556;2023-06-14T05:16:37;95536.53;;;17.54;92.83
57606;BME280;43430;48.204;11.556;2023-06-14T05:19:11;95542.88;;;17.64;92.57
57606;BME280;43430;48.204;11.556;2023-06-14T05:21:39;95543.38;;;17.76;91.95
57606;BME280;43430;48.204;11.556;2023-06-14T05:24:07;95540.91;;;17.85;91.94
57606;BME280;43430;48.204;11.556;2023-06-14T05:26:34;95541.28;;;18.07;89.64
57606;BME280;43430;48.204;11.556;2023-06-14T05:29:00;95545.00;;;18.06;89.71
57606;BME280;43430;48.204;11.556;2023-06-14T05:31:32;95553.81;;;18.07;91.70
57606;BME280;43430;48.204;11.556;2023-06-14T05:33:58;95557.34;;;17.97;93.04
57606;BME280;43430;48.204;11.556;2023-06-14T05:36:23;95552.44;;;18.09;92.06
57606;BME280;43430;48.204;11.556;2023-06-14T05:38:49;95553.78;;;17.67;92.47
57606;BME280;43430;48.204;11.556;2023-06-14T05:41:18;95553.91;;;16.82;99.34
57606;BME280;43430;48.204;11.556;2023-06-14T05:43:52;95557.22;;;15.92;100.00
57606;BME280;43430;48.204;11.556;2023-06-14T05:46:17;95567.75;;;15.46;100.00
57606;BME280;43430;48.204;11.556;2023-06-14T05:48:47;95560.53;;;15.36;100.00
57606;BME280;43430;48.204;11.556;2023-06-14T05:51:13;95567.72;;;15.41;100.00
57606;BME280;43430;48.204;11.556;2023-06-14T05:53:38;95563.19;;;15.41;100.00
57606;BME280;43430;48.204;11.556;2023-06-14T05:56:04;95564.78;;;15.37;100.00
57606;BME280;43430;48.204;11.556;2023-06-14T05:58:29;95558.16;;;15.35;100.00
57606;BME280;43430;48.204;11.556;2023-06-14T06:00:54;95567.69;;;15.26;100.00
57606;BME280;43430;48.204;11.556;2023-06-14T06:03:20;95566.09;;;15.30;100.00
57606;BME280;43430;48.204;11.556;2023-06-14T06:05:46;95561.88;;;15.29;100.00
57606;BME280;43430;48.204;11.556;2023-06-14T06:08:11;95572.28;;;15.46;100.00
57606;BME280;43430;48.204;11.556;2023-06-14T06:10:38;95561.94;;;15.64;100.00
57606;BME280;43430;48.204;11.556;2023-06-14T06:13:03;95570.44;;;15.56;100.00
57606;BME280;43430;48.204;11.556;2023-06-14T06:15:29;95570.94;;;15.53;100.00
57606;BME280;43430;48.204;11.556;2023-06-14T06:17:54;95564.84;;;15.53;100.00
57606;BME280;43430;48.204;11.556;2023-06-14T06:20:20;95572.53;;;15.49;100.00
57606;BME280;43430;48.204;11.556;2023-06-14T06:22:46;95572.53;;;15.54;100.00
57606;BME280;43430;48.204;11.556;2023-06-14T06:25:12;95567.81;;;15.72;100.00
57606;BME280;43430;48.204;11.556;2023-06-14T06:27:38;95574.75;;;15.73;100.00
57606;BME280;43430;48.204;11.556;2023-06-14T06:30:06;95579.03;;;15.94;100.00
57606;BME280;43430;48.204;11.556;2023-06-14T06:32:32;95577.16;;;16.10;100.00
57606;BME280;43430;48.204;11.556;2023-06-14T06:34:57;95585.94;;;15.90;100.00
57606;BME280;43430;48.204;11.556;2023-06-14T06:37:24;95588.56;;;15.75;100.00
57606;BME280;43430;48.204;11.556;2023-06-14T06:39:50;95586.72;;;15.90;100.00
57606;BME280;43430;48.204;11.556;2023-06-14T06:42:15;95580.06;;;16.13;100.00
57606;BME280;43430;48.204;11.556;2023-06-14T06:44:40;95584.06;;;16.16;100.00
57606;BME280;43430;48.204;11.556;2023-06-14T06:47:06;95581.16;;;16.23;100.00
57606;BME280;43430;48.204;11.556;2023-06-14T06:49:31;95584.59;;;16.38;100.00
57606;BME280;43430;48.204;11.556;2023-06-14T06:52:04;95586.97;;;16.60;100.00
57606;BME280;43430;48.204;11.556;2023-06-14T06:54:30;95585.09;;;16.61;100.00
57606;BME280;43430;48.204;11.556;2023-06-14T06:56:56;95592.00;;;16.67;100.00
57606;BME280;43430;48.204;11.556;2023-06-14T06:59:21;95589.09;;;16.53;100.00
57606;BME280;43430;48.204;11.556;2023-06-14T07:01:47;95592.81;;;16.73;100.00
57606;BME280;43430;48.204;11.556;2023-06-14T07:04:13;95592.03;;;16.62;100.00
57606;BME280;43430;48.204;11.556;2023-06-14T07:06:38;95577.59;;;16.89;98.64
57606;BME280;43430;48.204;11.556;2023-06-14T07:09:04;95578.41;;;16.79;99.98
57606;BME280;43430;48.204;11.556;2023-06-14T07:11:33;95583.72;;;16.94;98.72
57606;BME280;43430;48.204;11.556;2023-06-14T07:13:58;95578.44;;;16.84;96.98
57606;BME280;43430;48.204;11.556;2023-06-14T07:16:24;95599.47;;;16.80;99.69
57606;BME280;43430;48.204;11.556;2023-06-14T07:18:49;95587.50;;;16.83;99.48
57606;BME280;43430;48.204;11.556;2023-06-14T07:21:15;95592.53;;;16.90;99.83
57606;BME280;43430;48.204;11.556;2023-06-14T07:23:40;95591.19;;;16.87;100.00
57606;BME280;43430;48.204;11.556;2023-06-14T07:26:06;95600.19;;;17.06;100.00
57606;BME280;43430;48.204;11.556;2023-06-14T07:28:31;95603.25;;;17.39;99.12
57606;BME280;43430;48.204;11.556;2023-06-14T07:30:56;95608.31;;;17.46;99.61
57606;BME280;43430;48.204;11.556;2023-06-14T07:33:22;95600.78;;;17.53;99.91
57606;BME280;43430;48.204;11.556;2023-06-14T07:35:47;95604.88;;;17.35;99.82
57606;BME280;43430;48.204;11.556;2023-06-14T07:38:14;95605.44;;;17.27;100.00
57606;BME280;43430;48.204;11.556;2023-06-14T07:40:39;95608.81;;;17.48;99.46
57606;BME280;43430;48.204;11.556;2023-06-14T07:43:05;95613.59;;;17.51;99.16
57606;BME280;43430;48.204;11.556;2023-06-14T07:45:30;95606.56;;;17.70;96.41
57606;BME280;43430;48.204;11.556;2023-06-14T07:47:56;95609.22;;;17.81;94.61
57606;BME280;43430;48.204;11.556;2023-06-14T07:50:21;95603.59;;;17.82;92.61
57606;BME280;43430;48.204;11.556;2023-06-14T07:52:47;95609.50;;;17.79;92.77
57606;BME280;43430;48.204;11.556;2023-06-14T07:55:13;95609.03;;;18.06;90.35
57606;BME280;43430;48.204;11.556;2023-06-14T07:57:40;95609.13;;;18.30;89.38
57606;BME280;43430;48.204;11.556;2023-06-14T08:00:06;95604.63;;;18.55;88.66
57606;BME280;43430;48.204;11.556;2023-06-14T08:02:32;95605.44;;;18.55;82.85
57606;BME280;43430;48.204;11.556;2023-06-14T08:04:57;95609.72;;;18.51;84.38
57606;BME280;43430;48.204;11.556;2023-06-14T08:07:23;95604.91;;;18.58;81.33
57606;BME280;43430;48.204;11.556;2023-06-14T08:09:49;95606.81;;;18.53;84.00
57606;BME280;43430;48.204;11.556;2023-06-14T08:12:14;95603.34;;;18.52;81.65
57606;BME280;43430;48.204;11.556;2023-06-14T08:14:41;95601.31;;;18.73;75.04
57606;BME280;43430;48.204;11.556;2023-06-14T08:17:06;95612.00;;;18.97;74.03
57606;BME280;43430;48.204;11.556;2023-06-14T08:19:32;95600.34;;;19.12;71.88
57606;BME280;43430;48.204;11.556;2023-06-14T08:21:57;95610.41;;;19.20;61.95
57606;BME280;43430;48.204;11.556;2023-06-14T08:24:23;95612.84;;;19.16;71.55
57606;BME280;43430;48.204;11.556;2023-06-14T08:26:54;95616.78;;;19.00;68.77
57606;BME280;43430;48.204;11.556;2023-06-14T08:29:20;95611.69;;;19.04;62.56
57606;BME280;43430;48.204;11.556;2023-06-14T08:31:46;95611.56;;;19.14;55.80
57606;BME280;43430;48.204;11.556;2023-06-14T08:34:12;95619.72;;;19.23;61.92
57606;BME280;43430;48.204;11.556;2023-06-14T08:36:37;95614.72;;;19.40;61.53
57606;BME280;43430;48.204;11.556;2023-06-14T08:39:03;95615.63;;;19.30;65.13
57606;BME280;43430;48.204;11.556;2023-06-14T08:41:28;95621.56;;;19.51;60.67
57606;BME280;43430;48.204;11.556;2023-06-14T08:43:55;95620.72;;;19.51;61.72
57606;BME280;43430;48.204;11.556;2023-06-14T08:46:21;95628.88;;;19.40;56.20
57606;BME280;43430;48.204;11.556;2023-06-14T08:48:51;95630.38;;;19.28;58.26
57606;BME280;43430;48.204;11.556;2023-06-14T08:51:20;95639.53;;;19.21;59.80
57606;BME280;43430;48.204;11.556;2023-06-14T08:53:53;95633.31;;;19.26;61.97
57606;BME280;43430;48.204;11.556;2023-06-14T08:56:25;95635.28;;;19.44;58.91
57606;BME280;43430;48.204;11.556;2023-06-14T08:58:51;95628.13;;;19.59;54.06
57606;BME280;43430;48.204;11.556;2023-06-14T09:01:17;95632.69;;;19.82;50.86
57606;BME280;43430;48.204;11.556;2023-06-14T09:03:44;95635.00;;;19.89;46.29
57606;BME280;43430;48.204;11.556;2023-06-14T09:06:10;95627.31;;;20.01;44.95
57606;BME280;43430;48.204;11.556;2023-06-14T09:08:47;95625.78;;;20.14;42.13
57606;BME280;43430;48.204;11.556;2023-06-14T09:11:16;95626.94;;;20.27;43.29
57606;BME280;43430;48.204;11.556;2023-06-14T09:13:42;95617.28;;;20.45;39.11
57606;BME280;43430;48.204;11.556;2023-06-14T09:16:08;95619.34;;;20.34;39.07
57606;BME280;43430;48.204;11.556;2023-06-14T09:18:41;95618.28;;;20.49;43.39
57606;BME280;43430;48.204;11.556;2023-06-14T09:21:09;95625.25;;;20.82;40.62
57606;BME280;43430;48.204;11.556;2023-06-14T09:23:38;95620.19;;;20.95;38.41
57606;BME280;43430;48.204;11.556;2023-06-14T09:26:13;95627.34;;;20.85;42.09
57606;BME280;43430;48.204;11.556;2023-06-14T09:28:49;95628.38;;;20.71;52.79
57606;BME280;43430;48.204;11.556;2023-06-14T09:31:16;95627.34;;;20.85;43.97
57606;BME280;43430;48.204;11.556;2023-06-14T09:33:43;95632.19;;;20.83;48.47
57606;BME280;43430;48.204;11.556;2023-06-14T09:36:18;95627.91;;;20.69;45.46
57606;BME280;43430;48.204;11.556;2023-06-14T09:38:56;95625.88;;;20.60;48.81
57606;BME280;43430;48.204;11.556;2023-06-14T09:41:35;95626.47;;;20.57;51.62
57606;BME280;43430;48.204;11.556;2023-06-14T09:44:02;95633.50;;;20.53;54.53
57606;BME280;43430;48.204;11.556;2023-06-14T09:46:29;95635.63;;;20.70;52.31
57606;BME280;43430;48.204;11.556;2023-06-14T09:48:55;95634.84;;;20.70;51.06
57606;BME280;43430;48.204;11.556;2023-06-14T09:51:22;95636.41;;;20.71;46.36
57606;BME280;43430;48.204;11.556;2023-06-14T09:53:49;95630.06;;;20.67;49.95
57606;BME280;43430;48.204;11.556;2023-06-14T09:56:28;95634.19;;;20.92;46.60
57606;BME280;43430;48.204;11.556;2023-06-14T09:58:59;95626.72;;;20.89;44.24
57606;BME280;43430;48.204;11.556;2023-06-14T10:01:26;95630.63;;;20.96;42.29
57606;BME280;43430;48.204;11.556;2023-06-14T10:04:13;95632.09;;;20.89;43.63
57606;BME280;43430;48.204;11.556;2023-06-14T10:06:41;95644.97;;;20.73;44.04
57606;BME280;43430;48.204;11.556;2023-06-14T10:09:09;95641.16;;;20.60;43.15
57606;BME280;43430;48.204;11.556;2023-06-14T10:11:35;95634.91;;;20.65;44.92
57606;BME280;43430;48.204;11.556;2023-06-14T10:14:02;95637.81;;;20.68;39.95
57606;BME280;43430;48.204;11.556;2023-06-14T10:19:19;95628.56;;;20.60;42.76
57606;BME280;43430;48.204;11.556;2023-06-14T10:21:58;95631.66;;;20.68;41.69
57606;BME280;43430;48.204;11.556;2023-06-14T10:24:33;95627.69;;;20.65;38.30
57606;BME280;43430;48.204;11.556;2023-06-14T10:26:59;95626.94;;;20.92;39.66
57606;BME280;43430;48.204;11.556;2023-06-14T10:29:27;95634.19;;;20.92;41.56
57606;BME280;43430;48.204;11.556;2023-06-14T10:31:58;95622.19;;;20.89;41.05
57606;BME280;43430;48.204;11.556;2023-06-14T10:34:25;95615.03;;;20.98;40.48
57606;BME280;43430;48.204;11.556;2023-06-14T10:37:13;95617.22;;;20.96;39.17
57606;BME280;43430;48.204;11.556;2023-06-14T10:39:43;95627.53;;;20.89;39.74
57606;BME280;43430;48.204;11.556;2023-06-14T10:42:11;95626.94;;;20.92;39.83
57606;BME280;43430;48.204;11.556;2023-06-14T10:44:45;95633.31;;;20.96;37.93
57606;BME280;43430;48.204;11.556;2023-06-14T10:47:20;95623.94;;;20.80;37.21
57606;BME280;43430;48.204;11.556;2023-06-14T10:50:02;95620.97;;;20.95;39.41
57606;BME280;43430;48.204;11.556;2023-06-14T10:52:29;95630.72;;;21.19;36.86
57606;BME280;43430;48.204;11.556;2023-06-14T10:55:13;95623.78;;;21.18;34.10
57606;BME280;43430;48.204;11.556;2023-06-14T11:00:13;95629.88;;;21.37;36.91
57606;BME280;43430;48.204;11.556;2023-06-14T11:05:30;95619.34;;;21.54;35.93
57606;BME280;43430;48.204;11.556;2023-06-14T11:10:39;95615.16;;;21.48;33.41
57606;BME280;43430;48.204;11.556;2023-06-14T11:13:06;95619.34;;;21.54;34.15
57606;BME280;43430;48.204;11.556;2023-06-14T11:15:34;95602.63;;;21.44;37.58
57606;BME280;43430;48.204;11.556;2023-06-14T11:18:06;95608.41;;;21.65;37.66
57606;BME280;43430;48.204;11.556;2023-06-14T11:20:34;95615.44;;;21.47;38.48
57606;BME280;43430;48.204;11.556;2023-06-14T11:23:00;95622.50;;;21.43;36.99
57606;BME280;43430;48.204;11.556;2023-06-14T11:25:26;95612.28;;;21.17;36.96
57606;BME280;43430;48.204;11.556;2023-06-14T11:27:53;95615.44;;;21.19;36.54
57606;BME280;43430;48.204;11.556;2023-06-14T11:30:19;95620.03;;;21.46;35.72
57606;BME280;43430;48.204;11.556;2023-06-14T11:32:49;95616.34;;;21.56;34.08
57606;BME280;43430;48.204;11.556;2023-06-14T11:35:16;95612.75;;;21.61;34.30
57606;BME280;43430;48.204;11.556;2023-06-14T11:37:42;95608.06;;;21.80;33.36
57606;BME280;43430;48.204;11.556;2023-06-14T11:40:10;95601.91;;;22.16;37.70
57606;BME280;43430;48.204;11.556;2023-06-14T11:42:37;95598.97;;;22.48;35.12
57606;BME280;43430;48.204;11.556;2023-06-14T11:45:03;95594.78;;;22.34;35.55
57606;BME280;43430;48.204;11.556;2023-06-14T11:47:34;95591.53;;;22.09;35.15
57606;BME280;43430;48.204;11.556;2023-06-14T11:50:00;95598.78;;;22.22;35.92
57606;BME280;43430;48.204;11.556;2023-06-14T11:52:26;95596.19;;;22.31;34.39
57606;BME280;43430;48.204;11.556;2023-06-14T11:54:52;95586.19;;;22.23;35.14
57606;BME280;43430;48.204;11.556;2023-06-14T11:57:18;95582.50;;;22.41;33.73
57606;BME280;43430;48.204;11.556;2023-06-14T11:59:44;95589.16;;;22.44;33.65
57606;BME280;43430;48.204;11.556;2023-06-14T12:02:10;95590.84;;;22.62;33.60
57606;BME280;43430;48.204;11.556;2023-06-14T12:04:41;95585.56;;;22.48;35.45
57606;BME280;43430;48.204;11.556;2023-06-14T12:07:10;95583.72;;;22.58;35.40
57606;BME280;43430;48.204;11.556;2023-06-14T12:10:03;95594.72;;;22.47;35.03
57606;BME280;43430;48.204;11.556;2023-06-14T12:12:38;95602.22;;;22.00;34.92
57606;BME280;43430;48.204;11.556;2023-06-14T12:15:08;95598.25;;;21.75;33.95
57606;BME280;43430;48.204;11.556;2023-06-14T12:17:35;95602.50;;;21.76;33.80
57606;BME280;43430;48.204;11.556;2023-06-14T12:20:11;95597.47;;;21.61;32.03
57606;BME280;43430;48.204;11.556;2023-06-14T12:22:58;95586.75;;;21.61;32.81
57606;BME280;43430;48.204;11.556;2023-06-14T12:25:33;95593.75;;;21.71;32.80
57606;BME280;43430;48.204;11.556;2023-06-14T12:28:09;95593.25;;;22.05;32.36
57606;BME280;43430;48.204;11.556;2023-06-14T12:30:36;95589.75;;;22.18;31.68
57606;BME280;43430;48.204;11.556;2023-06-14T12:33:02;95588.72;;;22.50;32.87
57606;BME280;43430;48.204;11.556;2023-06-14T12:35:28;95588.53;;;22.47;32.04
57606;BME280;43430;48.204;11.556;2023-06-14T12:37:53;95580.44;;;22.38;31.55
57606;BME280;43430;48.204;11.556;2023-06-14T12:40:19;95582.53;;;22.50;32.52
57606;BME280;43430;48.204;11.556;2023-06-14T12:42:45;95581.03;;;22.58;31.41
57606;BME280;43430;48.204;11.556;2023-06-14T12:45:12;95581.31;;;22.56;32.47
57606;BME280;43430;48.204;11.556;2023-06-14T12:47:38;95586.75;;;22.65;33.33
57606;BME280;43430;48.204;11.556;2023-06-14T12:50:04;95595.03;;;22.77;32.26
57606;BME280;43430;48.204;11.556;2023-06-14T12:52:30;95594.03;;;22.42;31.76
57606;BME280;43430;48.204;11.556;2023-06-14T12:54:55;95590.72;;;22.22;32.51
57606;BME280;43430;48.204;11.556;2023-06-14T12:57:20;95594.72;;;22.25;30.88